createdAt,value
2018-10-21T00:00:48.517Z,103146.34
2018-10-21T00:03:17.284Z,103139.81
2018-10-21T00:05:45.944Z,103137.23
2018-10-21T00:08:14.645Z,103141.58
2018-10-21T00:10:43.607Z,103137.27
2018-10-21T00:13:12.351Z,103135.13
2018-10-21T00:15:41.171Z,103139.46
2018-10-21T00:18:09.811Z,103141.63
2018-10-21T00:20:38.528Z,103138.59
2018-10-21T00:23:07.354Z,103137.75
2018-10-21T00:25:36.076Z,103142.53
2018-10-21T00:28:04.860Z,103135.17
2018-10-21T00:30:33.608Z,103132.97
2018-10-21T00:33:02.312Z,103126.94
2018-10-21T00:35:31.028Z,103129.57
2018-10-21T00:37:59.767Z,103130.45
2018-10-21T00:40:28.518Z,103126.14
2018-10-21T00:42:57.200Z,103125.73
2018-10-21T00:45:25.901Z,103123.61
2018-10-21T00:47:54.602Z,103122.36
2018-10-21T00:50:23.311Z,103118.93
2018-10-21T00:52:52.014Z,103125.46
2018-10-21T00:55:20.722Z,103121.58
2018-10-21T00:57:49.419Z,103112.48
2018-10-21T01:00:18.194Z,103112.05
2018-10-21T01:02:46.899Z,103110.36
2018-10-21T01:05:15.656Z,103113.42
2018-10-21T01:07:44.370Z,103113.42
2018-10-21T01:10:13.092Z,103108.64
2018-10-21T01:12:42.137Z,103109.94
2018-10-21T01:15:12.186Z,103114.73
2018-10-21T01:17:40.893Z,103121.67
2018-10-21T01:20:11.512Z,103113.86
2018-10-21T01:22:40.650Z,103117.80
2018-10-21T01:25:09.881Z,103113.91
2018-10-21T01:27:39.531Z,103112.62
2018-10-21T01:30:09.389Z,103113.52
2018-10-21T01:32:38.149Z,103108.33
2018-10-21T01:35:07.763Z,103107.46
2018-10-21T01:37:36.551Z,103107.02
2018-10-21T01:40:48.172Z,103106.17
2018-10-21T01:43:18.830Z,103107.05
2018-10-21T01:45:47.583Z,103104.05
2018-10-21T01:48:17.447Z,103101.91
2018-10-21T01:50:46.256Z,103099.31
2018-10-21T01:53:15.882Z,103099.73
2018-10-21T01:55:44.653Z,103101.94
2018-10-21T01:58:13.369Z,103104.53
2018-10-21T02:00:42.522Z,103107.59
2018-10-21T02:03:11.280Z,103093.71
2018-10-21T02:05:40.557Z,103101.50
2018-10-21T02:08:09.275Z,103099.78
2018-10-21T02:10:38.052Z,103095.84
2018-10-21T02:13:06.842Z,103088.91
2018-10-21T02:15:35.546Z,103082.80
2018-10-21T02:18:04.364Z,103088.45
2018-10-21T02:20:33.079Z,103087.13
2018-10-21T02:23:01.846Z,103082.80
2018-10-21T02:25:30.544Z,103082.34
2018-10-21T02:27:59.258Z,103079.72
2018-10-21T02:30:28.952Z,103075.36
2018-10-21T02:32:58.356Z,103063.63
2018-10-21T02:35:27.013Z,103067.96
2018-10-21T02:37:56.204Z,103064.06
2018-10-21T02:41:36.903Z,103066.66
2018-10-21T02:44:06.597Z,103066.25
2018-10-21T02:46:35.796Z,103063.23
2018-10-21T02:49:05.174Z,103064.12
2018-10-21T02:51:33.869Z,103060.26
2018-10-21T02:54:02.573Z,103064.61
2018-10-21T02:56:31.282Z,103059.45
2018-10-21T02:59:00.025Z,103056.41
2018-10-21T03:01:28.727Z,103060.34
2018-10-21T03:03:57.440Z,103058.62
2018-10-21T03:06:26.169Z,103057.34
2018-10-21T03:08:54.881Z,103056.05
2018-10-21T03:11:23.608Z,103051.70
2018-10-21T03:13:52.425Z,103051.28
2018-10-21T03:16:21.162Z,103049.14
2018-10-21T03:18:49.864Z,103045.66
2018-10-21T03:21:18.627Z,103046.56
2018-10-21T03:23:47.278Z,103048.29
2018-10-21T03:26:15.972Z,103041.78
2018-10-21T03:28:44.660Z,103037.03
2018-10-21T03:31:13.348Z,103034.02
2018-10-21T03:33:42.180Z,103034.88
2018-10-21T03:36:10.818Z,103031.86
2018-10-21T03:38:39.577Z,103031.89
2018-10-21T03:41:08.284Z,103031.91
2018-10-21T03:43:37.007Z,103033.66
2018-10-21T03:46:05.763Z,103030.19
2018-10-21T03:48:34.491Z,103025.42
2018-10-21T03:51:03.268Z,103018.52
2018-10-21T03:53:31.976Z,103022.00
2018-10-21T03:56:00.688Z,103024.16
2018-10-21T03:58:29.413Z,103023.30
2018-10-21T04:00:58.149Z,103027.22
2018-10-21T04:03:26.828Z,103021.15
2018-10-21T04:05:55.544Z,103021.58
2018-10-21T04:08:24.248Z,103017.23
2018-10-21T04:10:52.930Z,103006.00
2018-10-21T04:13:21.636Z,103008.19
2018-10-21T04:15:50.352Z,103011.22
2018-10-21T04:18:19.079Z,103008.17
2018-10-21T04:20:47.767Z,103008.20
2018-10-21T04:23:16.457Z,103003.89
2018-10-21T04:25:45.173Z,103003.00
2018-10-21T04:28:14.008Z,103005.61
2018-10-21T04:30:43.314Z,103003.46
2018-10-21T04:33:18.232Z,102998.69
2018-10-21T04:35:46.952Z,102997.41
2018-10-21T04:38:39.475Z,102993.52
2018-10-21T04:41:08.205Z,102994.84
2018-10-21T04:43:36.885Z,103001.36
2018-10-21T04:46:05.666Z,102996.59
2018-10-21T04:48:34.370Z,102998.75
2018-10-21T04:51:03.082Z,102994.45
2018-10-21T04:53:31.775Z,102997.91
2018-10-21T04:56:00.483Z,102990.11
2018-10-21T04:58:29.194Z,102997.91
2018-10-21T05:00:57.906Z,102995.30
2018-10-21T05:03:26.619Z,102995.30
2018-10-21T05:05:55.320Z,102997.47
2018-10-21T05:08:24.819Z,102999.20
2018-10-21T05:10:53.549Z,102992.70
2018-10-21T05:13:22.276Z,102998.78
2018-10-21T05:15:51.095Z,103003.11
2018-10-21T05:18:19.747Z,103000.97
2018-10-21T05:20:48.478Z,103004.85
2018-10-21T05:23:17.198Z,103002.27
2018-10-21T05:25:45.898Z,103007.03
2018-10-21T05:28:14.638Z,103008.35
2018-10-21T05:30:43.318Z,103008.34
2018-10-21T05:33:12.036Z,103002.31
2018-10-21T05:35:41.331Z,103003.20
2018-10-21T05:38:10.019Z,103001.88
2018-10-21T05:40:38.757Z,103003.61
2018-10-21T05:43:07.504Z,103003.20
2018-10-21T05:45:36.259Z,103002.77
2018-10-21T05:48:05.168Z,103000.59
2018-10-21T05:50:33.905Z,103007.11
2018-10-21T05:53:02.667Z,103008.84
2018-10-21T05:55:31.392Z,103012.31
2018-10-21T05:58:00.195Z,103011.88
2018-10-21T06:00:28.866Z,103011.00
2018-10-21T06:02:57.685Z,103008.00
2018-10-21T06:05:43.193Z,103009.72
2018-10-21T06:08:11.921Z,103010.14
2018-10-21T06:10:41.036Z,103010.59
2018-10-21T06:13:09.983Z,103006.67
2018-10-21T06:15:38.786Z,103004.52
2018-10-21T06:18:09.924Z,103004.52
2018-10-21T06:20:43.021Z,103002.81
2018-10-21T06:23:11.781Z,103012.75
2018-10-21T06:25:40.475Z,103007.13
2018-10-21T06:28:09.330Z,103010.16
2018-10-21T06:30:38.091Z,103011.90
2018-10-21T06:33:06.877Z,103011.45
2018-10-21T06:35:35.566Z,103011.02
2018-10-21T06:38:04.330Z,103011.91
2018-10-21T06:40:33.075Z,103011.03
2018-10-21T06:43:01.968Z,103010.61
2018-10-21T06:45:30.744Z,103012.77
2018-10-21T06:47:59.448Z,103007.59
2018-10-21T06:50:28.177Z,103008.03
2018-10-21T06:52:56.927Z,103011.47
2018-10-21T06:55:25.678Z,103012.34
2018-10-21T06:57:54.387Z,103011.48
2018-10-21T07:00:23.092Z,103012.34
2018-10-21T07:02:51.809Z,103017.55
2018-10-21T07:05:31.404Z,103017.53
2018-10-21T07:08:00.121Z,103025.34
2018-10-21T07:10:28.958Z,103030.52
2018-10-21T07:12:57.693Z,103027.04
2018-10-21T07:15:26.449Z,103026.19
2018-10-21T07:17:55.198Z,103024.46
2018-10-21T07:20:24.012Z,103026.61
2018-10-21T07:22:52.724Z,103030.06
2018-10-21T07:25:21.421Z,103024.44
2018-10-21T07:27:50.222Z,103032.22
2018-10-21T07:30:18.922Z,103027.47
2018-10-21T07:32:47.627Z,103021.83
2018-10-21T07:35:16.363Z,103030.95
2018-10-21T07:37:45.664Z,103030.92
2018-10-21T07:40:14.474Z,103026.16
2018-10-21T07:42:43.302Z,103030.90
2018-10-21T07:45:12.083Z,103031.78
2018-10-21T07:47:40.826Z,103034.79
2018-10-21T07:50:09.549Z,103034.38
2018-10-21T07:52:38.262Z,103038.69
2018-10-21T07:55:07.141Z,103038.24
2018-10-21T07:57:35.783Z,103041.27
2018-10-21T08:00:04.601Z,103037.34
2018-10-21T08:02:33.304Z,103036.03
2018-10-21T08:05:02.049Z,103038.20
2018-10-21T08:07:41.635Z,103037.33
2018-10-21T08:10:10.384Z,103034.25
2018-10-21T08:12:39.094Z,103039.45
2018-10-21T08:15:07.866Z,103037.25
2018-10-21T08:17:36.572Z,103037.22
2018-10-21T08:20:05.711Z,103041.53
2018-10-21T08:22:34.573Z,103050.61
2018-10-21T08:25:03.335Z,103049.30
2018-10-21T08:27:32.113Z,103048.83
2018-10-21T08:30:00.853Z,103048.80
2018-10-21T08:32:29.564Z,103049.64
2018-10-21T08:34:58.559Z,103050.06
2018-10-21T08:37:27.306Z,103048.72
2018-10-21T08:39:56.161Z,103048.26
2018-10-21T08:42:24.933Z,103046.89
2018-10-21T08:44:53.707Z,103052.91
2018-10-21T08:47:22.446Z,103059.33
2018-10-21T08:49:51.336Z,103055.34
2018-10-21T08:52:20.109Z,103060.43
2018-10-21T08:54:48.877Z,103057.30
2018-10-21T08:57:17.653Z,103055.45
2018-10-21T08:59:46.386Z,103055.78
2018-10-21T09:02:15.206Z,103062.22
2018-10-21T09:04:43.981Z,103061.66
2018-10-21T09:07:12.783Z,103065.92
2018-10-21T09:09:41.492Z,103062.78
2018-10-21T09:12:10.321Z,103067.47
2018-10-21T09:14:39.068Z,103068.23
2018-10-21T09:17:07.859Z,103068.14
2018-10-21T09:19:36.651Z,103063.29
2018-10-21T09:22:05.423Z,103068.44
2018-10-21T09:24:34.208Z,103064.41
2018-10-21T09:27:03.000Z,103063.94
2018-10-21T09:29:31.749Z,103057.82
2018-10-21T09:32:00.471Z,103060.78
2018-10-21T09:34:29.175Z,103052.05
2018-10-21T09:36:57.954Z,103059.41
2018-10-21T09:39:27.260Z,103055.45
2018-10-21T09:41:56.038Z,103055.89
2018-10-21T09:44:24.768Z,103048.93
2018-10-21T09:46:53.503Z,103050.64
2018-10-21T09:49:22.215Z,103043.20
2018-10-21T09:51:50.960Z,103040.59
2018-10-21T09:54:19.663Z,103039.28
2018-10-21T09:56:48.405Z,103039.69
2018-10-21T09:59:17.110Z,103046.64
2018-10-21T10:01:51.052Z,103047.47
2018-10-21T10:04:19.828Z,103045.73
2018-10-21T10:06:48.601Z,103053.52
2018-10-21T10:09:17.364Z,103052.12
2018-10-21T10:11:46.093Z,103043.86
2018-10-21T10:14:14.837Z,103034.69
2018-10-21T10:16:43.590Z,103028.52
2018-10-21T10:19:12.447Z,103024.55
2018-10-21T10:21:41.102Z,103025.34
2018-10-21T10:24:09.858Z,103029.64
2018-10-21T10:26:38.601Z,103027.85
2018-10-21T10:29:07.333Z,103028.20
2018-10-21T10:31:36.068Z,103029.46
2018-10-21T10:34:04.958Z,103029.41
2018-10-21T10:36:33.609Z,103031.50
2018-10-21T10:39:02.402Z,103027.42
2018-10-21T10:41:31.126Z,103026.84
2018-10-21T10:43:59.848Z,103017.54
2018-10-21T10:46:28.599Z,103016.96
2018-10-21T10:48:57.377Z,103013.31
2018-10-21T10:51:26.107Z,103018.38
2018-10-21T10:53:54.825Z,103015.61
2018-10-21T10:56:23.750Z,103013.32
2018-10-21T10:58:52.481Z,103006.58
2018-10-21T11:01:21.209Z,103005.97
2018-10-21T11:03:49.961Z,103008.47
2018-10-21T11:06:18.699Z,102998.31
2018-10-21T11:08:47.431Z,102999.88
2018-10-21T11:11:17.024Z,102990.99
2018-10-21T11:13:45.812Z,102991.23
2018-10-21T11:16:14.644Z,102995.70
2018-10-21T11:18:43.276Z,102987.50
2018-10-21T11:21:11.995Z,102987.24
2018-10-21T11:23:40.689Z,102983.49
2018-10-21T11:26:09.399Z,102982.91
2018-10-21T11:28:38.144Z,102980.51
2018-10-21T11:31:06.934Z,102979.63
2018-10-21T11:33:35.625Z,102973.18
2018-10-21T11:36:04.420Z,102981.11
2018-10-21T11:38:33.197Z,102970.73
2018-10-21T11:41:01.913Z,102966.48
2018-10-21T11:43:30.662Z,102967.48
2018-10-21T11:45:59.368Z,102963.62
2018-10-21T11:48:28.078Z,102966.02
2018-10-21T11:50:56.783Z,102965.48
2018-10-21T11:53:25.517Z,102965.78
2018-10-21T11:55:54.237Z,102973.36
2018-10-21T11:58:22.928Z,102970.25
2018-10-21T12:00:51.717Z,102971.56
2018-10-21T12:03:20.488Z,102971.03
2018-10-21T12:05:49.206Z,102979.17
2018-10-21T12:08:17.960Z,102968.04
2018-10-21T12:10:46.680Z,102973.84
2018-10-21T12:13:15.475Z,102969.30
2018-10-21T12:15:44.157Z,102965.27
2018-10-21T12:18:12.856Z,102963.86
2018-10-21T12:20:41.597Z,102965.53
2018-10-21T12:23:10.389Z,102965.11
2018-10-21T12:25:39.114Z,102964.73
2018-10-21T12:28:07.900Z,102963.77
2018-10-21T12:30:36.557Z,102953.67
2018-10-21T12:33:05.325Z,102964.33
2018-10-21T12:35:34.037Z,102969.41
2018-10-21T12:38:02.788Z,102969.83
2018-10-21T12:40:31.489Z,102972.74
2018-10-21T12:43:00.208Z,102957.39
2018-10-21T12:45:28.976Z,102960.72
2018-10-21T12:47:57.662Z,102966.04
2018-10-21T12:50:26.389Z,102974.22
2018-10-21T12:52:55.119Z,102969.70
2018-10-21T12:55:23.850Z,102967.59
2018-10-21T12:57:52.670Z,102964.55
2018-10-21T13:00:21.365Z,102961.73
2018-10-21T13:02:50.081Z,102962.83
2018-10-21T13:05:18.763Z,102967.37
2018-10-21T13:07:47.483Z,102974.63
2018-10-21T13:10:16.251Z,102977.00
2018-10-21T13:12:44.974Z,102970.37
2018-10-21T13:15:13.716Z,102979.58
2018-10-21T13:17:42.418Z,102974.48
2018-10-21T13:20:11.109Z,102974.52
2018-10-21T13:22:39.828Z,102973.82
2018-10-21T13:25:08.642Z,102965.59
2018-10-21T13:27:37.296Z,102957.39
2018-10-21T13:30:06.906Z,102960.02
2018-10-21T13:32:35.649Z,102950.14
2018-10-21T13:35:04.500Z,102944.28
2018-10-21T13:37:33.241Z,102941.67
2018-10-21T13:40:02.137Z,102942.71
2018-10-21T13:42:30.903Z,102950.34
2018-10-21T13:44:59.584Z,102950.06
2018-10-21T13:47:28.296Z,102946.45
2018-10-21T13:49:56.989Z,102944.97
2018-10-21T13:52:25.719Z,102949.78
2018-10-21T13:54:54.433Z,102948.23
2018-10-21T13:57:23.128Z,102960.94
2018-10-21T13:59:51.808Z,102960.52
2018-10-21T14:02:20.505Z,102956.89
2018-10-21T14:04:49.208Z,102958.53
2018-10-21T14:07:18.045Z,102961.55
2018-10-21T14:09:46.623Z,102965.35
2018-10-21T14:12:15.369Z,102965.56
2018-10-21T14:14:44.122Z,102954.77
2018-10-21T14:17:12.845Z,102953.55
2018-10-21T14:19:41.568Z,102960.58
2018-10-21T14:22:10.319Z,102956.08
2018-10-21T14:24:39.328Z,102956.77
2018-10-21T14:27:07.983Z,102953.50
2018-10-21T14:29:36.753Z,102948.35
2018-10-21T14:32:05.556Z,102947.90
2018-10-21T14:34:34.282Z,102945.79
2018-10-21T14:37:03.027Z,102948.20
2018-10-21T14:39:31.750Z,102944.48
2018-10-21T14:42:00.500Z,102943.20
2018-10-21T14:44:29.204Z,102938.56
2018-10-21T14:46:57.920Z,102941.16
2018-10-21T14:49:26.601Z,102942.85
2018-10-21T14:51:55.313Z,102942.47
2018-10-21T14:54:24.043Z,102947.16
2018-10-21T14:56:52.787Z,102946.67
2018-10-21T14:59:21.572Z,102951.00
2018-10-21T15:01:50.270Z,102946.91
2018-10-21T15:04:19.022Z,102949.91
2018-10-21T15:06:47.926Z,102948.41
2018-10-21T15:09:16.707Z,102946.78
2018-10-21T15:11:45.413Z,102947.02
2018-10-21T15:14:14.184Z,102946.70
2018-10-21T15:16:42.881Z,102945.99
2018-10-21T15:19:11.771Z,102946.09
2018-10-21T15:21:40.526Z,102944.07
2018-10-21T15:24:09.318Z,102942.16
2018-10-21T15:26:38.194Z,102943.72
2018-10-21T15:29:07.190Z,102947.75
2018-10-21T15:31:35.970Z,102945.25
2018-10-21T15:34:04.864Z,102950.20
2018-10-21T15:36:33.565Z,102958.27
2018-10-21T15:39:02.347Z,102951.41
2018-10-21T15:41:31.155Z,102958.17
2018-10-21T15:43:59.906Z,102967.09
2018-10-21T15:46:28.664Z,102964.70
2018-10-21T15:48:57.478Z,102970.55
2018-10-21T15:51:26.204Z,102973.37
2018-10-21T15:53:54.968Z,102973.95
2018-10-21T15:56:23.696Z,102971.50
2018-10-21T15:58:52.434Z,102974.27
2018-10-21T16:01:21.140Z,102976.11
2018-10-21T16:03:50.083Z,102977.08
2018-10-21T16:06:18.783Z,102983.28
2018-10-21T16:08:47.600Z,102977.67
2018-10-21T16:11:16.358Z,102984.30
2018-10-21T16:13:45.172Z,102982.19
2018-10-21T16:16:14.215Z,102980.09
2018-10-21T16:18:43.124Z,102977.16
2018-10-21T16:21:11.928Z,102973.73
2018-10-21T16:23:40.888Z,102977.69
2018-10-21T16:26:09.720Z,102981.23
2018-10-21T16:28:38.396Z,102983.42
2018-10-21T16:31:07.304Z,102980.96
2018-10-21T16:33:36.046Z,102988.33
2018-10-21T16:36:04.825Z,102990.14
2018-10-21T16:38:33.686Z,102988.88
2018-10-21T16:41:02.396Z,102989.77
2018-10-21T16:43:31.095Z,102992.45
2018-10-21T16:45:59.843Z,102991.60
2018-10-21T16:48:28.588Z,102984.30
2018-10-21T16:50:57.405Z,102992.91
2018-10-21T16:53:26.144Z,102994.70
2018-10-21T16:55:54.777Z,102996.90
2018-10-21T16:58:23.487Z,102992.55
2018-10-21T17:00:52.317Z,103000.85
2018-10-21T17:03:21.124Z,102998.70
2018-10-21T17:05:49.840Z,102999.16
2018-10-21T17:08:18.572Z,103000.46
2018-10-21T17:10:47.400Z,103007.90
2018-10-21T17:13:16.169Z,103009.66
2018-10-21T17:15:44.928Z,103013.14
2018-10-21T17:18:13.677Z,103012.75
2018-10-21T17:20:42.460Z,103015.38
2018-10-21T17:23:11.190Z,103019.75
2018-10-21T17:25:39.936Z,103021.92
2018-10-21T17:28:08.784Z,103032.80
2018-10-21T17:30:37.516Z,103029.36
2018-10-21T17:33:06.233Z,103040.66
2018-10-21T17:35:34.967Z,103045.45
2018-10-21T17:38:03.738Z,103047.19
2018-10-21T17:40:32.500Z,103047.58
2018-10-21T17:43:01.257Z,103052.38
2018-10-21T17:45:29.912Z,103056.73
2018-10-21T17:47:58.693Z,103062.84
2018-10-21T17:50:27.424Z,103051.88
2018-10-21T17:52:56.211Z,103059.27
2018-10-21T17:55:24.926Z,103063.59
2018-10-21T17:57:53.673Z,103069.70
2018-10-21T18:00:22.484Z,103068.39
2018-10-21T18:02:51.213Z,103074.08
2018-10-21T18:05:20.020Z,103084.05
2018-10-21T18:07:48.724Z,103087.63
2018-10-21T18:10:17.592Z,103093.16
2018-10-21T18:12:46.238Z,103085.41
2018-10-21T18:15:14.945Z,103089.34
2018-10-21T18:17:43.840Z,103102.77
2018-10-21T18:20:13.429Z,103109.76
2018-10-21T18:22:42.182Z,103108.45
2018-10-21T18:25:11.177Z,103113.75
2018-10-21T18:27:40.326Z,103113.32
2018-10-21T18:30:10.348Z,103125.11
2018-10-21T18:32:39.076Z,103123.41
2018-10-21T18:35:09.214Z,103130.41
2018-10-21T18:37:38.008Z,103133.05
2018-10-21T18:40:07.714Z,103142.66
2018-10-21T18:42:36.489Z,103140.59
2018-10-21T18:45:05.619Z,103141.91
2018-10-21T18:47:34.466Z,103140.61
2018-10-21T18:50:03.136Z,103151.53
2018-10-21T18:52:31.895Z,103152.41
2018-10-21T18:55:00.609Z,103153.83
2018-10-21T18:57:29.316Z,103163.38
2018-10-21T18:59:58.059Z,103158.65
2018-10-21T19:02:26.764Z,103158.70
2018-10-21T19:04:55.465Z,103164.36
2018-10-21T19:07:24.168Z,103162.20
2018-10-21T19:09:52.857Z,103169.63
2018-10-21T19:12:21.584Z,103174.44
2018-10-21T19:14:50.285Z,103168.80
2018-10-21T19:17:18.948Z,103172.31
2018-10-21T19:19:47.687Z,103177.16
2018-10-21T19:22:16.391Z,103177.22
2018-10-21T19:24:45.068Z,103177.73
2018-10-21T19:27:13.887Z,103189.56
2018-10-21T19:29:42.496Z,103197.02
2018-10-21T19:32:11.165Z,103194.51
2018-10-21T19:34:39.855Z,103201.61
2018-10-21T19:37:08.646Z,103210.89
2018-10-21T19:39:37.346Z,103204.41
2018-10-21T19:42:06.104Z,103205.83
2018-10-21T19:44:34.833Z,103217.23
2018-10-21T19:47:03.596Z,103217.34
2018-10-21T19:49:32.309Z,103217.84
2018-10-21T19:52:01.020Z,103225.33
2018-10-21T19:54:29.708Z,103224.04
2018-10-21T19:56:58.448Z,103231.94
2018-10-21T19:59:27.247Z,103232.42
2018-10-21T20:01:55.965Z,103230.69
2018-10-21T20:04:24.752Z,103226.37
2018-10-21T20:06:53.638Z,103235.11
2018-10-21T20:09:22.439Z,103242.19
2018-10-21T20:11:51.246Z,103244.80
2018-10-21T20:14:20.199Z,103252.27
2018-10-21T20:16:49.007Z,103252.32
2018-10-21T20:19:17.952Z,103257.55
2018-10-21T20:21:46.687Z,103256.25
2018-10-21T20:24:15.473Z,103250.19
2018-10-21T20:26:44.192Z,103248.06
2018-10-21T20:29:13.657Z,103252.81
2018-10-21T20:31:42.596Z,103254.13
2018-10-21T20:34:11.364Z,103266.33
2018-10-21T20:36:40.061Z,103270.25
2018-10-21T20:39:10.054Z,103265.94
2018-10-21T20:41:39.476Z,103279.81
2018-10-21T20:44:08.911Z,103281.98
2018-10-21T20:46:38.504Z,103281.50
2018-10-21T20:49:07.580Z,103289.30
2018-10-21T20:51:36.422Z,103290.13
2018-10-21T20:54:05.531Z,103289.30
2018-10-21T20:56:34.309Z,103299.23
2018-10-21T20:59:03.188Z,103311.44
2018-10-21T21:01:32.208Z,103299.62
2018-10-21T21:04:01.228Z,103315.28
2018-10-21T21:06:29.944Z,103320.51
2018-10-21T21:08:59.736Z,103324.01
2018-10-21T21:11:29.551Z,103324.84
2018-10-21T21:13:58.272Z,103327.44
2018-10-21T21:16:27.163Z,103328.74
2018-10-21T21:18:55.841Z,103330.07
2018-10-21T21:21:25.216Z,103332.22
2018-10-21T21:23:53.976Z,103343.13
2018-10-21T21:26:22.633Z,103348.37
2018-10-21T21:28:51.310Z,103354.05
2018-10-21T21:31:20.068Z,103358.84
2018-10-21T21:33:48.801Z,103352.30
2018-10-21T21:36:17.571Z,103357.97
2018-10-21T21:38:46.235Z,103354.00
2018-10-21T21:41:14.941Z,103358.41
2018-10-21T21:43:43.710Z,103361.03
2018-10-21T21:46:12.512Z,103362.78
2018-10-21T21:48:41.144Z,103370.63
2018-10-21T21:51:09.850Z,103365.50
2018-10-21T21:53:38.522Z,103373.70
2018-10-21T21:56:07.228Z,103379.81
2018-10-21T21:58:35.989Z,103372.05
2018-10-21T22:01:04.725Z,103379.86
2018-10-21T22:03:33.434Z,103374.67
2018-10-21T22:06:02.207Z,103384.66
2018-10-21T22:08:31.420Z,103393.38
2018-10-21T22:11:00.140Z,103390.77
2018-10-21T22:13:28.906Z,103393.38
2018-10-21T22:15:57.694Z,103395.13
2018-10-21T22:18:26.361Z,103395.56
2018-10-21T22:20:55.054Z,103406.47
2018-10-21T22:23:23.851Z,103400.38
2018-10-21T22:25:52.600Z,103412.63
2018-10-21T22:28:21.400Z,103413.93
2018-10-21T22:30:50.115Z,103419.17
2018-10-21T22:33:18.924Z,103423.53
2018-10-21T22:35:47.608Z,103428.77
2018-10-21T22:38:16.334Z,103434.00
2018-10-21T22:40:45.043Z,103437.94
2018-10-21T22:43:13.744Z,103448.41
2018-10-21T22:45:42.429Z,103448.88
2018-10-21T22:48:11.275Z,103456.34
2018-10-21T22:50:39.945Z,103464.16
2018-10-21T22:53:08.619Z,103468.09
2018-10-21T22:55:37.290Z,103473.33
2018-10-21T22:58:06.233Z,103468.09
2018-10-21T23:00:35.068Z,103473.36
2018-10-21T23:03:03.852Z,103470.39
2018-10-21T23:05:32.587Z,103487.37
2018-10-21T23:08:01.620Z,103491.77
2018-10-21T23:10:30.308Z,103497.87
2018-10-21T23:12:59.042Z,103497.05
2018-10-21T23:15:27.756Z,103501.45
2018-10-21T23:17:56.451Z,103497.09
2018-10-21T23:20:25.184Z,103493.23
2018-10-21T23:22:53.872Z,103505.49
2018-10-21T23:25:22.580Z,103501.64
2018-10-21T23:27:51.333Z,103505.17
2018-10-21T23:30:20.084Z,103503.98
2018-10-21T23:32:49.276Z,103516.19
2018-10-21T23:35:17.952Z,103513.21
2018-10-21T23:37:46.625Z,103525.92
2018-10-21T23:40:15.383Z,103530.32
2018-10-21T23:42:44.027Z,103530.35
2018-10-21T23:45:12.708Z,103534.34
2018-10-21T23:47:41.398Z,103532.63
2018-10-21T23:50:10.182Z,103530.95
2018-10-21T23:52:38.903Z,103527.06
2018-10-21T23:55:07.659Z,103537.12
2018-10-21T23:57:36.361Z,103544.13
